Terminal Aerodrome Forecast
Issued by NWS Newport/Morehead City, NC

Home | Current Version | Previous Version | Graphics & Text | Print | Product List | Glossary On
Versions: 1 2 3 4 5 6 7 8 9 10 11 12 13 14 15 16 17 18 19 20
735
FTUS42 KMHX 231526 AAA
TAFEWN
TAF AMD
KEWN 231526Z 2315/2412 06010G18KT P6SM VCSH OVC015
     FM231700 07009KT P6SM VCSH BKN020
     FM240000 05007KT P6SM VCSH OVC007
     FM240600 06005KT 5SM -SHRA OVC010=

USA.gov is the U.S. government's official web portal to all federal, state and local government web resources and services.